• Join FlightAware (Why Join?)
  • Login
  • US Flag 
12:19PM EDT


 

Airport Tracker/Info


-or-


 

Live Flight TrackerFlight Track Log ✈ UAL256 ✈ 21-Apr-2013 ✈ KSJC - KDEN

Flight Track Log - Related Links

Times and Time Zones

All times are in EDT time to prevent confusion due to time zone crossing. See the UAL256 flight status page for this flight to view local times or setup timezone preferences in your user account.

Time Position Orientation Groundspeed Altitude Reporting Facility
EDT Latitude Longitude Course Direction KTS MPH feet Rate Location/Type
05:41PM 37.3833 -121.9500 67° East 149 171 1,100  Level Northern Cal TRACON
05:42PM 37.4167 -121.9833 322° Northwest 209 241 3,000 1,980 Climbing Northern Cal TRACON
05:43PM 37.7260 -121.9782 354° North  Level FlightAware Approximate
05:43PM 37.4333 -121.9167 73° East 234 269 5,100  Level Northern Cal TRACON
05:44PM 37.8133 -121.9172 76° East  Level FlightAware Approximate
05:44PM 37.4000 -121.8667 130° Southeast 227 261 5,000  Level Northern Cal TRACON
05:45PM 37.8542 -121.7645 63° Northeast  Level FlightAware Approximate
05:45PM 37.3500 -121.8000 133° Southeast 244 281 7,300  Level Northern Cal TRACON
05:45PM 37.3331 -121.7950 167° South 239 275 7,900 2,460 Climbing Oakland Center
05:46PM 37.8956 -121.6134 67° East  Level FlightAware Approximate
05:46PM 37.2942 -121.8575 232° Southwest 286 329 10,500  Level Oakland Center
05:47PM 37.3561 -121.9225 320° Northwest 302 348 12,300 2,160 Climbing Oakland Center
05:48PM 37.4167 -121.9500 340° North 340 391 14,300 2,340 Climbing Northern Cal TRACON
05:50PM 37.6453 -121.9703 356° North 365 420 19,600 2,160 Climbing Oakland Center
05:51PM 37.7214 -121.8775 44° Northeast 398 458 21,700 1,980 Climbing Oakland Center
05:52PM 37.7836 -121.7217 63° Northeast 414 476 23,700 1,800 Climbing Oakland Center
05:53PM 37.8381 -121.5875 63° Northeast 427 491 25,500 1,680 Climbing Oakland Center
05:54PM 37.8947 -121.4486 63° Northeast 439 505 27,200 1,560 Climbing Oakland Center
05:55PM 37.9511 -121.3092 63° Northeast 447 514 28,700 1,380 Climbing Oakland Center
05:56PM 38.0011 -121.1636 66° East 458 527 30,100 1,260 Climbing Oakland Center
05:57PM 38.0256 -121.0011 79° East 471 542 31,400 1,440 Climbing Oakland Center
05:58PM 38.0506 -120.8397 79° East 471 542 33,100 1,500 Climbing Oakland Center
05:59PM 38.0786 -120.6475 79° East 467 537 34,600 1,320 Climbing Oakland Center
06:00PM 38.1025 -120.4872 79° East 464 534 35,900 960 Climbing Oakland Center
06:01PM 38.1264 -120.3261 79° East 465 535 36,600 480 Climbing Oakland Center
06:02PM 38.1489 -120.1639 80° East 466 536 37,000 180 Climbing Oakland Center
06:03PM 38.1728 -120.0036 79° East 465 535 37,000  Level Oakland Center
06:04PM 38.1942 -119.8422 80° East 464 534 37,000  Level Oakland Center
06:05PM 38.2164 -119.6792 80° East 467 537 37,000  Level Oakland Center
06:06PM 38.2433 -119.4850 80° East 465 535 37,000  Level Oakland Center
06:07PM 38.2636 -119.3336 80° East 468 539 37,000  Level Oakland Center
06:08PM 38.2856 -119.1731 80° East 464 534 37,000  Level Oakland Center
06:09PM 38.3033 -119.0103 82° East 467 537 37,000  Level Oakland Center
06:10PM 38.3089 -118.8436 88° East 474 545 37,000  Level Oakland Center
06:11PM 38.3153 -118.6422 88° East 477 549 37,000  Level Oakland Center
06:12PM 38.3203 -118.4758 88° East 475 547 37,000  Level Oakland Center
06:14PM 38.3253 -118.3081 88° East 476 548 37,000  Level Oakland Center
06:15PM 38.3306 -118.1389 88° East 478 550 37,000  Level Oakland Center
06:16PM 38.3344 -117.9672 88° East 479 551 37,000  Level Oakland Center
06:17PM 38.3389 -117.7986 88° East 476 548 37,000  Level Oakland Center
06:18PM 38.3431 -117.6300 88° East 475 547 37,000  Level Oakland Center
06:19PM 38.3467 -117.4600 88° East 476 548 37,000  Level Oakland Center
06:19PM 38.3492 -117.3575 88° East 475 547 37,000  Level Salt Lake Center
06:20PM 38.3511 -117.2667 88° East 473 544 37,000  Level Oakland Center
06:21PM 38.3539 -117.0994 89° East 474 545 37,000 -240 Level Oakland Center
06:21PM 38.3553 -117.0164 89° East 475 547 36,700 -1,260 Descending Salt Lake Center
06:22PM 38.3589 -116.8461 88° East 474 545 35,100 -1,140 Descending Salt Lake Center
06:23PM 38.3600 -116.7797 89° East 474 545 35,000 -120 Descending Oakland Center
06:24PM 38.3617 -116.5803 89° East 468 539 35,000  Level Oakland Center
06:25PM 38.3644 -116.4122 89° East 472 543 35,000  Level Oakland Center
06:25PM 38.3650 -116.3456 89° East 471 542 35,000  Level Salt Lake Center
06:26PM 38.3678 -116.1767 89° East 476 548 35,000  Level Salt Lake Center
06:27PM 38.3694 -116.0103 89° East 471 542 35,000  Level Salt Lake Center
06:28PM 38.3708 -115.8428 89° East 472 543 35,000  Level Salt Lake Center
06:29PM 38.3719 -115.6422 90° East 474 545 35,000  Level Salt Lake Center
06:30PM 38.3736 -115.4739 89° East 474 545 35,000  Level Salt Lake Center
06:31PM 38.3786 -115.3256 87° East 473 544 35,000  Level Salt Lake Center
06:32PM 38.3836 -115.1236 88° East 474 545 35,000  Level Salt Lake Center
06:33PM 38.3892 -114.9567 88° East 473 544 35,000  Level Salt Lake Center
06:35PM 38.3925 -114.7886 88° East 473 544 35,000  Level Salt Lake Center
06:36PM 38.3964 -114.6192 88° East 477 549 35,000  Level Salt Lake Center
06:37PM 38.4006 -114.4517 88° East 474 545 35,000  Level Salt Lake Center
06:38PM 38.4042 -114.2828 88° East 476 548 35,000  Level Salt Lake Center
06:39PM 38.4075 -114.1150 88° East 473 544 35,000  Level Salt Lake Center
06:40PM 38.4111 -113.9439 88° East 482 555 35,000  Level Salt Lake Center
06:41PM 38.4131 -113.7733 89° East 481 554 35,000  Level Salt Lake Center
06:42PM 38.4147 -113.5697 89° East 478 550 35,000  Level Salt Lake Center
06:43PM 38.4172 -113.3994 89° East 479 551 35,000  Level Salt Lake Center
06:44PM 38.4200 -113.2261 89° East 483 556 35,000  Level Salt Lake Center
06:45PM 38.4217 -113.0544 89° East 484 557 35,000  Level Salt Lake Center
06:46PM 38.4228 -112.8831 89° East 482 555 35,000  Level Salt Lake Center
06:47PM 38.4239 -112.7119 89° East 481 554 35,000  Level Salt Lake Center
06:48PM 38.4250 -112.5383 89° East 485 558 35,000  Level Salt Lake Center
06:49PM 38.4253 -112.3650 90° East 487 560 35,000  Level Salt Lake Center
06:50PM 38.4264 -112.1892 89° East 492 566 35,000  Level Salt Lake Center
06:51PM 38.4256 -112.0158 90° East 490 564 35,000  Level Salt Lake Center
06:52PM 38.4256 -111.8053 90° East 493 567 35,000  Level Salt Lake Center
06:53PM 38.4250 -111.6314 90° East 493 567 35,000  Level Salt Lake Center
06:54PM 38.4250 -111.4589 90° East 489 563 35,000  Level Salt Lake Center
06:55PM 38.4244 -111.2869 90° East 486 559 35,000  Level Salt Lake Center
06:56PM 38.4225 -111.1128 91° East 490 564 35,000  Level Salt Lake Center
06:57PM 38.4214 -110.9186 90° East 492 566 35,000  Level Salt Lake Center
06:58PM 38.4192 -110.7511 91° East 493 567 35,000  Level Salt Lake Center
06:59PM 38.4200 -110.5817 90° East 492 566 35,000  Level Denver Center
07:00PM 38.4242 -110.3875 88° East 490 564 35,000  Level Denver Center
07:01PM 38.4272 -110.2169 89° East 502 578 35,000  Level Denver Center
07:02PM 38.4311 -110.0133 89° East 514 592 35,000  Level Denver Center
07:03PM 38.4339 -109.8386 89° East 515 593 35,000  Level Denver Center
07:04PM 38.4372 -109.6369 89° East 511 588 35,000  Level Denver Center
07:05PM 38.4406 -109.4633 89° East 513 590 35,100  Climbing Denver Center
07:06PM 38.4419 -109.2875 89° East 518 596 35,000 -60 Descending Denver Center
07:07PM 38.4456 -109.0758 89° East 531 611 35,000  Level Denver Center
07:08PM 38.4469 -108.8950 89° East 534 615 35,000  Level Denver Center
07:09PM 38.4489 -108.6814 89° East 541 623 35,000  Level Denver Center
07:10PM 38.4506 -108.4994 89° East 537 618 35,000  Level Denver Center
07:11PM 38.4511 -108.2881 90° East 535 616 35,000 -60 Level Denver Center
07:12PM 38.4522 -108.1064 89° East 538 619 34,900  Descending Denver Center
07:14PM 38.4506 -107.8958 91° East 535 616 35,000  Climbing Denver Center
07:15PM 38.4547 -107.7142 88° East 536 617 35,000  Level Denver Center
07:17PM 38.5539 -107.3678 70° East 496 571 35,000 -60 Level Denver Center
07:18PM 38.6281 -107.2008 60° Northeast 487 560 34,900  Descending Denver Center
07:19PM 38.6967 -107.0464 60° Northeast 493 567 35,100  Climbing Denver Center
07:20PM 38.7636 -106.8983 60° Northeast 484 557 35,000 -120 Descending Denver Center
07:21PM 38.8292 -106.7458 61° Northeast 490 564 34,900 -1,020 Descending Denver Center
07:22PM 38.9075 -106.5739 60° Northeast 491 565 33,000 -2,220 Descending Denver Center
07:23PM 38.9756 -106.4283 59° Northeast 495 570 30,400 -2,580 Descending Denver Center
07:24PM 39.0500 -106.2636 60° Northeast 479 551 27,700 -1,860 Descending Denver Center
07:25PM 39.1083 -106.1336 60° Northeast 449 517 26,600 -1,500 Descending Denver Center
07:26PM 39.1661 -106.0008 61° Northeast 424 488 24,700 -1,500 Descending Denver Center
07:27PM 39.2233 -105.8706 60° Northeast 417 480 23,200 -1,860 Descending Denver Center
07:28PM 39.2981 -105.7025 60° Northeast 402 463 20,500 -2,280 Descending Denver Center
07:29PM 39.3517 -105.5819 60° Northeast 389 448 18,500 -1,440 Descending Denver Center
07:30PM 39.3994 -105.4656 62° Northeast 381 438 17,600 -1,020 Descending Denver Center
07:31PM 39.4017 -105.3331 89° East 338 389 16,500 -1,260 Descending Denver Center
07:32PM 39.4444 -105.2361 60° Northeast 318 366 15,000 -1,560 Descending Denver Center
07:33PM 39.5156 -105.1575 40° Northeast 311 358 13,300 -1,020 Descending Denver Center
07:34PM 39.6003 -105.1464 North 308 354 13,000 -600 Descending Denver Center
07:35PM 39.6756 -105.1225 14° North 266 306 12,100 -1,020 Descending Denver Center
07:36PM 39.7233 -105.0578 46° Northeast 253 291 11,000 -1,320 Descending Denver Center
07:37PM 39.7658 -104.9786 55° Northeast 248 285 9,400 -1,560 Descending Denver Center